sensor_id;sensor_type;location;lat;lon;timestamp;P1;durP1;ratioP1;P2;durP2;ratioP2
22415;SDS011;12204;50.600;4.608;2023-06-01T00:04:58;7.70;;;2.20;;
22415;SDS011;12204;50.600;4.608;2023-06-01T00:10:01;3.90;;;1.77;;
22415;SDS011;12204;50.600;4.608;2023-06-01T00:15:08;4.78;;;1.98;;
22415;SDS011;12204;50.600;4.608;2023-06-01T00:20:12;5.70;;;2.00;;
22415;SDS011;12204;50.600;4.608;2023-06-01T00:25:16;5.60;;;1.90;;
22415;SDS011;12204;50.600;4.608;2023-06-01T00:30:20;4.60;;;2.00;;
22415;SDS011;12204;50.600;4.608;2023-06-01T00:35:24;4.65;;;2.03;;
22415;SDS011;12204;50.600;4.608;2023-06-01T00:40:27;5.78;;;2.00;;
22415;SDS011;12204;50.600;4.608;2023-06-01T00:45:32;6.72;;;2.30;;
22415;SDS011;12204;50.600;4.608;2023-06-01T00:50:36;5.25;;;2.08;;
22415;SDS011;12204;50.600;4.608;2023-06-01T00:55:39;5.85;;;2.03;;
22415;SDS011;12204;50.600;4.608;2023-06-01T01:00:45;4.68;;;2.00;;
22415;SDS011;12204;50.600;4.608;2023-06-01T01:05:51;5.65;;;2.03;;
22415;SDS011;12204;50.600;4.608;2023-06-01T01:11:07;4.70;;;1.88;;
22415;SDS011;12204;50.600;4.608;2023-06-01T01:16:26;5.88;;;2.10;;
22415;SDS011;12204;50.600;4.608;2023-06-01T01:21:36;6.93;;;2.03;;
22415;SDS011;12204;50.600;4.608;2023-06-01T01:26:52;5.45;;;1.90;;
22415;SDS011;12204;50.600;4.608;2023-06-01T01:32:13;6.40;;;2.28;;
22415;SDS011;12204;50.600;4.608;2023-06-01T01:37:17;4.40;;;1.85;;
22415;SDS011;12204;50.600;4.608;2023-06-01T01:42:23;4.50;;;2.10;;
22415;SDS011;12204;50.600;4.608;2023-06-01T01:47:31;4.93;;;1.90;;
22415;SDS011;12204;50.600;4.608;2023-06-01T01:52:44;4.73;;;1.97;;
22415;SDS011;12204;50.600;4.608;2023-06-01T01:57:49;4.57;;;1.95;;
22415;SDS011;12204;50.600;4.608;2023-06-01T02:02:56;9.13;;;2.03;;
22415;SDS011;12204;50.600;4.608;2023-06-01T02:07:59;6.05;;;1.90;;
22415;SDS011;12204;50.600;4.608;2023-06-01T02:13:04;5.15;;;1.90;;
22415;SDS011;12204;50.600;4.608;2023-06-01T02:18:09;4.80;;;1.88;;
22415;SDS011;12204;50.600;4.608;2023-06-01T02:23:17;5.63;;;2.10;;
22415;SDS011;12204;50.600;4.608;2023-06-01T02:28:20;5.47;;;1.98;;
22415;SDS011;12204;50.600;4.608;2023-06-01T02:33:26;6.13;;;2.20;;
22415;SDS011;12204;50.600;4.608;2023-06-01T02:38:29;6.50;;;2.13;;
22415;SDS011;12204;50.600;4.608;2023-06-01T02:43:33;5.28;;;1.90;;
22415;SDS011;12204;50.600;4.608;2023-06-01T02:48:39;6.50;;;2.10;;
22415;SDS011;12204;50.600;4.608;2023-06-01T02:53:43;5.15;;;2.00;;
22415;SDS011;12204;50.600;4.608;2023-06-01T02:58:47;3.97;;;1.75;;
22415;SDS011;12204;50.600;4.608;2023-06-01T03:03:58;4.35;;;1.70;;
22415;SDS011;12204;50.600;4.608;2023-06-01T03:09:06;5.20;;;2.05;;
22415;SDS011;12204;50.600;4.608;2023-06-01T03:14:27;4.60;;;2.00;;
22415;SDS011;12204;50.600;4.608;2023-06-01T03:19:32;5.55;;;2.10;;
22415;SDS011;12204;50.600;4.608;2023-06-01T03:24:42;5.13;;;2.10;;
22415;SDS011;12204;50.600;4.608;2023-06-01T03:29:46;5.28;;;2.00;;
22415;SDS011;12204;50.600;4.608;2023-06-01T03:34:50;6.72;;;2.08;;
22415;SDS011;12204;50.600;4.608;2023-06-01T03:39:54;5.38;;;1.90;;
22415;SDS011;12204;50.600;4.608;2023-06-01T03:45:02;5.22;;;2.10;;
22415;SDS011;12204;50.600;4.608;2023-06-01T03:50:09;4.20;;;1.73;;
22415;SDS011;12204;50.600;4.608;2023-06-01T03:55:14;4.43;;;2.00;;
22415;SDS011;12204;50.600;4.608;2023-06-01T04:00:47;5.65;;;2.20;;
22415;SDS011;12204;50.600;4.608;2023-06-01T04:05:52;5.57;;;2.10;;
22415;SDS011;12204;50.600;4.608;2023-06-01T04:11:00;5.55;;;2.03;;
22415;SDS011;12204;50.600;4.608;2023-06-01T04:16:04;4.10;;;2.10;;
22415;SDS011;12204;50.600;4.608;2023-06-01T04:21:10;5.82;;;2.00;;
22415;SDS011;12204;50.600;4.608;2023-06-01T04:26:14;5.15;;;2.10;;
22415;SDS011;12204;50.600;4.608;2023-06-01T04:31:19;4.13;;;1.88;;
22415;SDS011;12204;50.600;4.608;2023-06-01T04:36:24;4.32;;;2.15;;
22415;SDS011;12204;50.600;4.608;2023-06-01T04:41:33;5.85;;;2.00;;
22415;SDS011;12204;50.600;4.608;2023-06-01T04:46:38;5.38;;;2.05;;
22415;SDS011;12204;50.600;4.608;2023-06-01T04:51:44;8.30;;;2.33;;
22415;SDS011;12204;50.600;4.608;2023-06-01T04:56:53;5.32;;;2.60;;
22415;SDS011;12204;50.600;4.608;2023-06-01T05:01:56;8.23;;;2.63;;
22415;SDS011;12204;50.600;4.608;2023-06-01T05:07:02;6.43;;;3.00;;
22415;SDS011;12204;50.600;4.608;2023-06-01T05:12:07;9.20;;;3.00;;
22415;SDS011;12204;50.600;4.608;2023-06-01T05:17:11;7.65;;;2.95;;
22415;SDS011;12204;50.600;4.608;2023-06-01T05:22:17;9.38;;;2.90;;
22415;SDS011;12204;50.600;4.608;2023-06-01T05:27:20;6.75;;;2.92;;
22415;SDS011;12204;50.600;4.608;2023-06-01T05:32:24;7.25;;;3.28;;
22415;SDS011;12204;50.600;4.608;2023-06-01T05:37:34;5.97;;;3.05;;
22415;SDS011;12204;50.600;4.608;2023-06-01T05:42:38;7.28;;;3.20;;
22415;SDS011;12204;50.600;4.608;2023-06-01T05:47:42;7.22;;;3.42;;
22415;SDS011;12204;50.600;4.608;2023-06-01T05:52:47;8.48;;;3.35;;
22415;SDS011;12204;50.600;4.608;2023-06-01T05:57:51;7.32;;;3.03;;
22415;SDS011;12204;50.600;4.608;2023-06-01T06:02:54;6.07;;;2.80;;
22415;SDS011;12204;50.600;4.608;2023-06-01T06:07:59;8.35;;;2.72;;
22415;SDS011;12204;50.600;4.608;2023-06-01T06:13:03;6.93;;;2.80;;
22415;SDS011;12204;50.600;4.608;2023-06-01T06:18:07;6.40;;;2.70;;
22415;SDS011;12204;50.600;4.608;2023-06-01T06:23:12;5.88;;;2.53;;
22415;SDS011;12204;50.600;4.608;2023-06-01T06:28:16;6.30;;;2.55;;
22415;SDS011;12204;50.600;4.608;2023-06-01T06:33:19;6.35;;;2.75;;
22415;SDS011;12204;50.600;4.608;2023-06-01T06:38:24;9.95;;;4.15;;
22415;SDS011;12204;50.600;4.608;2023-06-01T06:43:29;9.48;;;4.28;;
22415;SDS011;12204;50.600;4.608;2023-06-01T06:48:32;16.40;;;5.10;;
22415;SDS011;12204;50.600;4.608;2023-06-01T06:53:37;14.27;;;5.35;;
22415;SDS011;12204;50.600;4.608;2023-06-01T06:58:41;14.25;;;5.53;;
22415;SDS011;12204;50.600;4.608;2023-06-01T07:03:54;16.30;;;5.32;;
22415;SDS011;12204;50.600;4.608;2023-06-01T07:08:59;12.02;;;5.47;;
22415;SDS011;12204;50.600;4.608;2023-06-01T07:14:03;14.45;;;5.15;;
22415;SDS011;12204;50.600;4.608;2023-06-01T07:19:06;22.17;;;6.07;;
22415;SDS011;12204;50.600;4.608;2023-06-01T07:24:12;20.20;;;6.38;;
22415;SDS011;12204;50.600;4.608;2023-06-01T07:29:15;19.15;;;6.15;;
22415;SDS011;12204;50.600;4.608;2023-06-01T07:34:19;12.10;;;5.70;;
22415;SDS011;12204;50.600;4.608;2023-06-01T07:39:24;10.65;;;6.20;;
22415;SDS011;12204;50.600;4.608;2023-06-01T07:44:28;11.75;;;6.20;;
22415;SDS011;12204;50.600;4.608;2023-06-01T07:49:31;12.88;;;6.70;;
22415;SDS011;12204;50.600;4.608;2023-06-01T07:54:38;12.80;;;6.28;;
22415;SDS011;12204;50.600;4.608;2023-06-01T07:59:41;12.93;;;6.53;;
22415;SDS011;12204;50.600;4.608;2023-06-01T08:04:45;13.02;;;6.70;;
22415;SDS011;12204;50.600;4.608;2023-06-01T08:09:51;9.90;;;6.10;;
22415;SDS011;12204;50.600;4.608;2023-06-01T08:14:54;11.85;;;7.00;;
22415;SDS011;12204;50.600;4.608;2023-06-01T08:19:58;11.13;;;6.90;;
22415;SDS011;12204;50.600;4.608;2023-06-01T08:25:03;11.75;;;6.57;;
22415;SDS011;12204;50.600;4.608;2023-06-01T08:30:12;13.00;;;7.13;;
22415;SDS011;12204;50.600;4.608;2023-06-01T08:35:18;13.77;;;6.93;;
22415;SDS011;12204;50.600;4.608;2023-06-01T08:40:23;10.90;;;6.90;;
22415;SDS011;12204;50.600;4.608;2023-06-01T08:45:27;10.93;;;7.63;;
22415;SDS011;12204;50.600;4.608;2023-06-01T08:50:32;12.02;;;7.97;;
22415;SDS011;12204;50.600;4.608;2023-06-01T08:55:37;11.90;;;7.68;;
22415;SDS011;12204;50.600;4.608;2023-06-01T09:00:41;13.55;;;8.45;;
22415;SDS011;12204;50.600;4.608;2023-06-01T09:05:45;18.23;;;9.57;;
22415;SDS011;12204;50.600;4.608;2023-06-01T09:10:50;15.18;;;9.70;;
22415;SDS011;12204;50.600;4.608;2023-06-01T09:15:53;17.23;;;10.40;;
22415;SDS011;12204;50.600;4.608;2023-06-01T09:21:09;13.63;;;10.10;;
22415;SDS011;12204;50.600;4.608;2023-06-01T09:26:16;19.13;;;11.57;;
22415;SDS011;12204;50.600;4.608;2023-06-01T09:31:34;16.50;;;11.05;;
22415;SDS011;12204;50.600;4.608;2023-06-01T09:36:42;16.52;;;11.60;;
22415;SDS011;12204;50.600;4.608;2023-06-01T09:41:48;20.10;;;13.57;;
22415;SDS011;12204;50.600;4.608;2023-06-01T09:46:55;20.85;;;15.10;;
22415;SDS011;12204;50.600;4.608;2023-06-01T09:52:10;19.17;;;16.05;;
22415;SDS011;12204;50.600;4.608;2023-06-01T09:57:23;23.75;;;17.13;;
22415;SDS011;12204;50.600;4.608;2023-06-01T10:02:30;22.55;;;17.50;;
22415;SDS011;12204;50.600;4.608;2023-06-01T10:07:36;27.23;;;21.80;;
22415;SDS011;12204;50.600;4.608;2023-06-01T10:12:42;24.52;;;20.58;;
22415;SDS011;12204;50.600;4.608;2023-06-01T10:17:48;25.92;;;20.45;;
22415;SDS011;12204;50.600;4.608;2023-06-01T10:22:52;22.73;;;19.00;;
22415;SDS011;12204;50.600;4.608;2023-06-01T10:27:59;20.85;;;16.20;;
22415;SDS011;12204;50.600;4.608;2023-06-01T10:33:08;20.35;;;13.85;;
22415;SDS011;12204;50.600;4.608;2023-06-01T10:38:21;16.90;;;11.88;;
22415;SDS011;12204;50.600;4.608;2023-06-01T10:43:42;15.38;;;10.07;;
22415;SDS011;12204;50.600;4.608;2023-06-01T10:59:35;16.07;;;8.07;;
22415;SDS011;12204;50.600;4.608;2023-06-01T11:04:39;13.88;;;7.43;;
22415;SDS011;12204;50.600;4.608;2023-06-01T11:09:43;12.02;;;6.55;;
22415;SDS011;12204;50.600;4.608;2023-06-01T11:15:08;11.63;;;6.32;;
22415;SDS011;12204;50.600;4.608;2023-06-01T11:20:14;13.57;;;6.35;;
22415;SDS011;12204;50.600;4.608;2023-06-01T11:25:21;14.07;;;6.25;;
22415;SDS011;12204;50.600;4.608;2023-06-01T11:30:27;13.60;;;6.00;;
22415;SDS011;12204;50.600;4.608;2023-06-01T11:35:31;10.95;;;5.47;;
22415;SDS011;12204;50.600;4.608;2023-06-01T11:40:36;14.68;;;5.75;;
22415;SDS011;12204;50.600;4.608;2023-06-01T11:45:42;10.70;;;5.10;;
22415;SDS011;12204;50.600;4.608;2023-06-01T11:50:46;10.77;;;4.70;;
22415;SDS011;12204;50.600;4.608;2023-06-01T11:55:49;9.15;;;4.40;;
22415;SDS011;12204;50.600;4.608;2023-06-01T12:00:56;11.90;;;4.80;;
22415;SDS011;12204;50.600;4.608;2023-06-01T12:06:01;9.73;;;4.63;;
22415;SDS011;12204;50.600;4.608;2023-06-01T12:11:05;11.20;;;5.05;;
22415;SDS011;12204;50.600;4.608;2023-06-01T12:16:12;8.18;;;4.53;;
22415;SDS011;12204;50.600;4.608;2023-06-01T12:21:23;12.02;;;4.80;;
22415;SDS011;12204;50.600;4.608;2023-06-01T12:26:34;7.65;;;4.63;;
22415;SDS011;12204;50.600;4.608;2023-06-01T12:31:39;9.75;;;4.90;;
22415;SDS011;12204;50.600;4.608;2023-06-01T12:36:56;10.32;;;4.65;;
22415;SDS011;12204;50.600;4.608;2023-06-01T12:42:00;10.75;;;4.95;;
22415;SDS011;12204;50.600;4.608;2023-06-01T12:47:05;9.23;;;4.68;;
22415;SDS011;12204;50.600;4.608;2023-06-01T12:52:09;11.10;;;5.07;;
22415;SDS011;12204;50.600;4.608;2023-06-01T12:57:14;10.98;;;5.22;;
22415;SDS011;12204;50.600;4.608;2023-06-01T13:02:19;10.45;;;4.80;;
22415;SDS011;12204;50.600;4.608;2023-06-01T13:07:22;11.00;;;5.10;;
22415;SDS011;12204;50.600;4.608;2023-06-01T13:12:26;10.02;;;4.88;;
22415;SDS011;12204;50.600;4.608;2023-06-01T13:17:31;11.27;;;5.15;;
22415;SDS011;12204;50.600;4.608;2023-06-01T13:22:35;9.88;;;5.38;;
22415;SDS011;12204;50.600;4.608;2023-06-01T13:27:39;11.70;;;5.55;;
22415;SDS011;12204;50.600;4.608;2023-06-01T13:32:45;10.30;;;4.80;;
22415;SDS011;12204;50.600;4.608;2023-06-01T13:37:48;12.52;;;5.82;;
22415;SDS011;12204;50.600;4.608;2023-06-01T13:42:52;11.98;;;5.60;;
22415;SDS011;12204;50.600;4.608;2023-06-01T13:47:57;11.93;;;5.60;;
22415;SDS011;12204;50.600;4.608;2023-06-01T13:53:01;13.95;;;5.72;;
22415;SDS011;12204;50.600;4.608;2023-06-01T13:58:07;14.70;;;5.68;;
22415;SDS011;12204;50.600;4.608;2023-06-01T14:03:12;11.10;;;5.47;;
22415;SDS011;12204;50.600;4.608;2023-06-01T14:08:19;10.60;;;5.95;;
22415;SDS011;12204;50.600;4.608;2023-06-01T14:13:23;13.43;;;5.60;;
22415;SDS011;12204;50.600;4.608;2023-06-01T14:18:28;15.10;;;5.70;;
22415;SDS011;12204;50.600;4.608;2023-06-01T14:23:31;14.90;;;5.68;;
22415;SDS011;12204;50.600;4.608;2023-06-01T14:28:35;13.35;;;5.47;;
22415;SDS011;12204;50.600;4.608;2023-06-01T14:33:40;13.95;;;5.75;;
22415;SDS011;12204;50.600;4.608;2023-06-01T14:38:44;13.32;;;5.75;;
22415;SDS011;12204;50.600;4.608;2023-06-01T14:43:48;13.15;;;5.85;;
22415;SDS011;12204;50.600;4.608;2023-06-01T14:48:53;12.48;;;5.78;;
22415;SDS011;12204;50.600;4.608;2023-06-01T14:53:56;13.80;;;5.68;;
22415;SDS011;12204;50.600;4.608;2023-06-01T14:59:00;12.20;;;5.50;;
22415;SDS011;12204;50.600;4.608;2023-06-01T15:04:05;10.68;;;5.40;;
22415;SDS011;12204;50.600;4.608;2023-06-01T15:09:09;12.57;;;5.68;;
22415;SDS011;12204;50.600;4.608;2023-06-01T15:14:12;12.23;;;5.55;;
22415;SDS011;12204;50.600;4.608;2023-06-01T15:19:17;12.98;;;5.70;;
22415;SDS011;12204;50.600;4.608;2023-06-01T15:24:21;10.65;;;5.10;;
22415;SDS011;12204;50.600;4.608;2023-06-01T15:29:25;14.15;;;5.75;;
22415;SDS011;12204;50.600;4.608;2023-06-01T15:34:29;11.65;;;5.50;;
22415;SDS011;12204;50.600;4.608;2023-06-01T15:39:33;13.45;;;5.88;;
22415;SDS011;12204;50.600;4.608;2023-06-01T15:44:38;13.32;;;5.88;;
22415;SDS011;12204;50.600;4.608;2023-06-01T15:49:44;14.73;;;5.60;;
22415;SDS011;12204;50.600;4.608;2023-06-01T15:54:48;13.88;;;5.70;;
22415;SDS011;12204;50.600;4.608;2023-06-01T15:59:52;14.73;;;5.47;;
22415;SDS011;12204;50.600;4.608;2023-06-01T16:04:57;12.27;;;5.05;;
22415;SDS011;12204;50.600;4.608;2023-06-01T16:10:00;11.18;;;5.00;;
22415;SDS011;12204;50.600;4.608;2023-06-01T16:15:04;10.80;;;5.05;;
22415;SDS011;12204;50.600;4.608;2023-06-01T16:20:11;13.50;;;5.35;;
22415;SDS011;12204;50.600;4.608;2023-06-01T16:25:17;12.35;;;5.00;;
22415;SDS011;12204;50.600;4.608;2023-06-01T16:35:30;11.40;;;4.57;;
22415;SDS011;12204;50.600;4.608;2023-06-01T16:40:33;10.80;;;4.43;;
22415;SDS011;12204;50.600;4.608;2023-06-01T16:45:39;9.07;;;4.47;;
22415;SDS011;12204;50.600;4.608;2023-06-01T16:50:44;10.95;;;4.53;;
22415;SDS011;12204;50.600;4.608;2023-06-01T16:55:49;13.93;;;4.35;;
22415;SDS011;12204;50.600;4.608;2023-06-01T17:00:52;15.48;;;4.80;;
22415;SDS011;12204;50.600;4.608;2023-06-01T17:05:57;10.80;;;4.22;;
22415;SDS011;12204;50.600;4.608;2023-06-01T17:11:01;23.70;;;4.50;;
22415;SDS011;12204;50.600;4.608;2023-06-01T17:16:05;12.63;;;4.30;;
22415;SDS011;12204;50.600;4.608;2023-06-01T17:21:11;12.75;;;4.43;;
22415;SDS011;12204;50.600;4.608;2023-06-01T17:26:14;14.88;;;4.30;;
22415;SDS011;12204;50.600;4.608;2023-06-01T17:31:18;10.55;;;4.50;;
22415;SDS011;12204;50.600;4.608;2023-06-01T17:36:23;10.05;;;4.15;;
22415;SDS011;12204;50.600;4.608;2023-06-01T17:41:26;11.90;;;4.05;;
22415;SDS011;12204;50.600;4.608;2023-06-01T17:46:30;10.88;;;4.20;;
22415;SDS011;12204;50.600;4.608;2023-06-01T17:51:36;10.93;;;4.20;;
22415;SDS011;12204;50.600;4.608;2023-06-01T17:56:41;8.13;;;4.07;;
22415;SDS011;12204;50.600;4.608;2023-06-01T18:01:45;9.85;;;4.00;;
22415;SDS011;12204;50.600;4.608;2023-06-01T18:06:50;8.60;;;3.95;;
22415;SDS011;12204;50.600;4.608;2023-06-01T18:11:53;9.05;;;3.83;;
22415;SDS011;12204;50.600;4.608;2023-06-01T18:16:57;9.30;;;4.10;;
22415;SDS011;12204;50.600;4.608;2023-06-01T18:22:08;11.57;;;3.78;;
22415;SDS011;12204;50.600;4.608;2023-06-01T18:27:16;10.20;;;4.07;;
22415;SDS011;12204;50.600;4.608;2023-06-01T18:32:22;8.70;;;3.57;;
22415;SDS011;12204;50.600;4.608;2023-06-01T18:37:27;10.77;;;3.70;;
22415;SDS011;12204;50.600;4.608;2023-06-01T18:42:31;12.57;;;4.03;;
22415;SDS011;12204;50.600;4.608;2023-06-01T18:47:38;9.15;;;3.45;;
22415;SDS011;12204;50.600;4.608;2023-06-01T18:52:43;9.57;;;3.65;;
22415;SDS011;12204;50.600;4.608;2023-06-01T18:57:47;8.98;;;3.40;;
22415;SDS011;12204;50.600;4.608;2023-06-01T19:02:50;9.45;;;3.60;;
22415;SDS011;12204;50.600;4.608;2023-06-01T19:07:55;8.77;;;3.45;;
22415;SDS011;12204;50.600;4.608;2023-06-01T19:13:00;7.28;;;3.20;;
22415;SDS011;12204;50.600;4.608;2023-06-01T19:18:03;11.45;;;3.42;;
22415;SDS011;12204;50.600;4.608;2023-06-01T19:23:10;7.18;;;3.10;;
22415;SDS011;12204;50.600;4.608;2023-06-01T19:28:17;8.23;;;2.97;;
22415;SDS011;12204;50.600;4.608;2023-06-01T19:33:21;8.75;;;2.75;;
22415;SDS011;12204;50.600;4.608;2023-06-01T19:38:27;8.32;;;2.65;;
22415;SDS011;12204;50.600;4.608;2023-06-01T19:43:39;9.82;;;2.40;;
22415;SDS011;12204;50.600;4.608;2023-06-01T19:48:45;7.95;;;2.35;;
22415;SDS011;12204;50.600;4.608;2023-06-01T19:53:52;7.27;;;2.17;;
22415;SDS011;12204;50.600;4.608;2023-06-01T19:58:58;5.47;;;2.20;;
22415;SDS011;12204;50.600;4.608;2023-06-01T20:04:37;6.20;;;2.17;;
22415;SDS011;12204;50.600;4.608;2023-06-01T20:09:42;6.20;;;2.10;;
22415;SDS011;12204;50.600;4.608;2023-06-01T20:14:47;6.53;;;2.10;;
22415;SDS011;12204;50.600;4.608;2023-06-01T20:19:51;7.28;;;2.10;;
22415;SDS011;12204;50.600;4.608;2023-06-01T20:24:57;6.25;;;2.15;;
22415;SDS011;12204;50.600;4.608;2023-06-01T20:30:02;6.15;;;2.17;;
22415;SDS011;12204;50.600;4.608;2023-06-01T20:35:07;5.03;;;2.28;;
22415;SDS011;12204;50.600;4.608;2023-06-01T20:40:13;8.90;;;2.05;;
22415;SDS011;12204;50.600;4.608;2023-06-01T20:46:14;7.68;;;2.10;;
22415;SDS011;12204;50.600;4.608;2023-06-01T20:51:27;3.95;;;1.90;;
22415;SDS011;12204;50.600;4.608;2023-06-01T20:56:40;4.55;;;1.90;;
22415;SDS011;12204;50.600;4.608;2023-06-01T21:01:47;6.57;;;2.30;;
22415;SDS011;12204;50.600;4.608;2023-06-01T21:06:53;7.47;;;2.30;;
22415;SDS011;12204;50.600;4.608;2023-06-01T21:12:22;5.80;;;2.40;;
22415;SDS011;12204;50.600;4.608;2023-06-01T21:17:26;5.13;;;2.13;;
22415;SDS011;12204;50.600;4.608;2023-06-01T21:22:30;6.95;;;2.30;;
22415;SDS011;12204;50.600;4.608;2023-06-01T21:27:35;5.82;;;2.10;;
22415;SDS011;12204;50.600;4.608;2023-06-01T21:32:39;4.78;;;1.90;;
22415;SDS011;12204;50.600;4.608;2023-06-01T21:37:45;6.63;;;2.10;;
22415;SDS011;12204;50.600;4.608;2023-06-01T21:42:50;6.10;;;2.20;;
22415;SDS011;12204;50.600;4.608;2023-06-01T21:47:53;8.15;;;2.33;;
22415;SDS011;12204;50.600;4.608;2023-06-01T21:52:57;11.27;;;2.42;;
22415;SDS011;12204;50.600;4.608;2023-06-01T21:58:03;6.97;;;2.47;;
22415;SDS011;12204;50.600;4.608;2023-06-01T22:03:07;7.97;;;2.40;;
22415;SDS011;12204;50.600;4.608;2023-06-01T22:08:13;8.55;;;2.60;;
22415;SDS011;12204;50.600;4.608;2023-06-01T22:13:19;5.47;;;2.03;;
22415;SDS011;12204;50.600;4.608;2023-06-01T22:18:22;6.28;;;2.25;;
22415;SDS011;12204;50.600;4.608;2023-06-01T22:23:26;7.05;;;2.10;;
22415;SDS011;12204;50.600;4.608;2023-06-01T22:28:31;6.28;;;1.98;;
22415;SDS011;12204;50.600;4.608;2023-06-01T22:33:36;6.05;;;2.00;;
22415;SDS011;12204;50.600;4.608;2023-06-01T22:38:40;5.60;;;2.00;;
22415;SDS011;12204;50.600;4.608;2023-06-01T22:43:46;5.13;;;2.20;;
22415;SDS011;12204;50.600;4.608;2023-06-01T22:48:49;7.15;;;2.08;;
22415;SDS011;12204;50.600;4.608;2023-06-01T22:53:53;5.05;;;2.03;;
22415;SDS011;12204;50.600;4.608;2023-06-01T22:58:58;5.05;;;1.75;;
22415;SDS011;12204;50.600;4.608;2023-06-01T23:04:02;5.95;;;2.00;;
22415;SDS011;12204;50.600;4.608;2023-06-01T23:09:06;4.95;;;2.10;;
22415;SDS011;12204;50.600;4.608;2023-06-01T23:14:13;7.68;;;2.17;;
22415;SDS011;12204;50.600;4.608;2023-06-01T23:19:18;8.40;;;2.20;;
22415;SDS011;12204;50.600;4.608;2023-06-01T23:24:22;5.43;;;2.00;;
22415;SDS011;12204;50.600;4.608;2023-06-01T23:29:27;6.45;;;2.30;;
22415;SDS011;12204;50.600;4.608;2023-06-01T23:34:32;8.20;;;2.72;;
22415;SDS011;12204;50.600;4.608;2023-06-01T23:39:35;9.30;;;2.30;;
22415;SDS011;12204;50.600;4.608;2023-06-01T23:44:48;7.20;;;2.15;;
22415;SDS011;12204;50.600;4.608;2023-06-01T23:49:52;7.88;;;2.47;;
22415;SDS011;12204;50.600;4.608;2023-06-01T23:54:57;6.82;;;2.22;;
